Time;durP1;ratioP1;P1;durP2;ratioP2;P2;SDS_P1;SDS_P2;PMS_P1;PMS_P2;Temp;Humidity;BMP_temperature;BMP_pressure;BME280_temperature;BME280_humidity;BME280_pressure;Samples;Min_cycle;Max_cycle;Signal;HPM_P1;HPM_P2
2023/01/22 00:00:17;;;;;;;2.63;1.37;;;;;;;13.11;96.77;99017.47;5088985;28;20188;-91
2023/01/22 00:02:42;;;;;;;3.13;1.37;;;;;;;13.31;95.88;99019.66;5089700;28;20207;-91
2023/01/22 00:05:08;;;;;;;3.93;1.77;;;;;;;13.21;94.01;99018.56;5093132;28;20543;-91
2023/01/22 00:07:34;;;;;;;4.90;1.40;;;;;;;13.18;95.89;99014.34;5109255;28;20249;-91
2023/01/22 00:09:59;;;;;;;2.53;1.03;;;;;;;13.03;94.58;99017.94;5110229;28;20188;-91
2023/01/22 00:12:25;;;;;;;3.40;1.50;;;;;;;13.18;95.08;99029.31;5109610;28;20686;-92
2023/01/22 00:14:51;;;;;;;5.97;1.37;;;;;;;13.13;94.96;99034.03;5090907;28;20177;-92
2023/01/22 00:17:17;;;;;;;5.23;1.50;;;;;;;13.06;94.66;99036.16;5076428;28;20173;-90
2023/01/22 00:19:42;;;;;;;5.23;1.70;;;;;;;12.80;96.62;99036.97;5094944;28;20634;-91
2023/01/22 00:22:10;;;;;;;6.60;1.63;;;;;;;12.74;97.68;99039.97;5095962;28;20283;-92
2023/01/22 00:24:35;;;;;;;2.83;1.23;;;;;;;13.02;96.30;99039.94;5095146;28;20202;-91
2023/01/22 00:27:01;;;;;;;7.20;1.13;;;;;;;13.17;94.28;99032.88;5096016;28;20168;-92
2023/01/22 00:29:26;;;;;;;6.73;1.43;;;;;;;13.20;94.22;99030.03;5094995;28;20175;-92
2023/01/22 00:31:52;;;;;;;2.63;1.10;;;;;;;12.97;95.05;99030.66;5085501;28;20178;-91
2023/01/22 00:34:17;;;;;;;3.53;1.07;;;;;;;13.11;95.09;99025.34;5074764;28;20184;-91
2023/01/22 00:36:43;;;;;;;4.57;0.90;;;;;;;13.16;93.87;99031.16;5074750;28;20280;-91
2023/01/22 00:39:09;;;;;;;6.27;1.30;;;;;;;13.05;94.75;99031.00;5074599;28;20278;-91
2023/01/22 00:41:34;;;;;;;3.00;1.13;;;;;;;12.71;96.44;99032.31;5076097;28;20193;-92
2023/01/22 00:44:00;;;;;;;7.00;1.20;;;;;;;12.67;97.44;99034.28;5095769;28;20176;-91
2023/01/22 00:46:25;;;;;;;9.23;1.43;;;;;;;12.74;95.91;99025.03;5095247;28;20172;-91
2023/01/22 00:48:51;;;;;;;2.43;1.17;;;;;;;12.73;97.32;99027.78;5094765;28;20245;-91
2023/01/22 00:51:17;;;;;;;3.60;1.30;;;;;;;13.00;96.60;99028.66;5095832;28;20172;-92
2023/01/22 00:53:43;;;;;;;4.40;1.30;;;;;;;13.04;94.95;99017.00;5094763;28;20187;-92
2023/01/22 00:56:09;;;;;;;8.80;1.40;;;;;;;13.12;94.86;99024.44;5095518;28;20184;-91
2023/01/22 00:58:35;;;;;;;5.40;1.27;;;;;;;12.91;95.44;99043.25;5094683;28;20275;-91
2023/01/22 01:01:01;;;;;;;4.73;1.20;;;;;;;13.06;94.61;99045.81;5081238;28;20259;-92
2023/01/22 01:03:26;;;;;;;3.80;1.07;;;;;;;13.29;93.68;99047.84;5075745;28;20173;-92
2023/01/22 01:05:57;;;;;;;9.00;1.70;;;;;;;13.29;93.31;99042.59;5074158;28;20180;-92
2023/01/22 01:08:24;;;;;;;6.67;1.70;;;;;;;13.20;93.41;99049.31;5086854;28;20560;-92
2023/01/22 01:10:54;;;;;;;9.33;2.53;;;;;;;13.17;94.14;99059.19;5095364;28;20174;-92
2023/01/22 01:13:20;;;;;;;13.93;3.57;;;;;;;13.11;94.18;99064.84;5095225;28;20319;-92
2023/01/22 01:15:45;;;;;;;13.60;4.37;;;;;;;13.12;94.52;99066.53;5095156;28;20661;-92
2023/01/22 01:18:13;;;;;;;8.53;1.57;;;;;;;12.93;95.35;99061.56;5095082;28;20169;-92
2023/01/22 01:20:39;;;;;;;11.10;2.87;;;;;;;13.01;95.59;99061.06;5094112;28;20183;-91
2023/01/22 01:23:05;;;;;;;5.40;2.17;;;;;;;13.04;95.19;99064.38;5095246;28;20192;-91
2023/01/22 01:25:30;;;;;;;8.47;2.57;;;;;;;13.06;95.03;99067.72;5093161;28;20180;-91
2023/01/22 01:27:56;;;;;;;13.17;2.57;;;;;;;13.27;94.75;99071.66;5095019;28;20252;-92
2023/01/22 01:30:21;;;;;;;9.80;1.27;;;;;;;13.59;93.99;99069.56;5089790;28;20250;-92
2023/01/22 01:32:48;;;;;;;5.80;1.37;;;;;;;13.87;91.63;99076.47;5073897;28;20172;-92
2023/01/22 01:35:13;;;;;;;7.53;1.40;;;;;;;13.94;91.14;99075.94;5073713;28;20274;-92
2023/01/22 01:37:39;;;;;;;6.07;1.27;;;;;;;14.04;90.94;99068.28;5073885;28;20573;-92
2023/01/22 01:40:05;;;;;;;8.33;1.50;;;;;;;14.23;89.73;99073.16;5074465;28;20583;-92
2023/01/22 01:42:34;;;;;;;8.83;1.63;;;;;;;14.33;89.01;99074.25;5073569;28;20205;-92
2023/01/22 01:45:20;;;;;;;3.23;1.40;;;;;;;14.49;87.38;99069.59;5074421;28;20169;-92
2023/01/22 01:47:48;;;;;;;8.80;1.80;;;;;;;14.35;87.59;99067.06;5073510;28;20240;-91
2023/01/22 01:50:19;;;;;;;3.60;1.10;;;;;;;14.47;87.05;99066.19;5073485;28;20538;-92
2023/01/22 01:52:45;;;;;;;3.23;1.13;;;;;;;14.58;85.95;99056.59;5074348;28;20581;-92
2023/01/22 01:55:11;;;;;;;8.07;1.53;;;;;;;14.57;86.15;99057.53;5074155;28;20177;-92
2023/01/22 01:57:38;;;;;;;4.50;1.30;;;;;;;14.64;85.43;99063.25;5074401;28;20212;-92
2023/01/22 02:00:09;;;;;;;2.30;0.97;;;;;;;14.57;86.30;99067.28;5074204;28;20180;-92
2023/01/22 02:02:35;;;;;;;2.40;0.90;;;;;;;14.58;85.82;99072.44;5073243;28;20197;-92
2023/01/22 02:05:02;;;;;;;4.00;1.23;;;;;;;14.57;85.47;99067.28;5091514;28;20210;-92
2023/01/22 02:07:28;;;;;;;6.17;1.63;;;;;;;14.41;85.01;99066.66;5093829;28;20178;-91
2023/01/22 02:09:53;;;;;;;4.30;1.10;;;;;;;13.83;86.94;99067.94;5079940;28;20267;-91
2023/01/22 02:12:19;;;;;;;4.30;1.70;;;;;;;13.64;87.60;99059.56;5073513;28;20262;-91
2023/01/22 02:14:45;;;;;;;3.33;1.70;;;;;;;13.55;88.32;99058.38;5073684;28;20207;-91
2023/01/22 02:17:12;;;;;;;2.67;0.93;;;;;;;13.17;89.55;99073.19;5084384;28;20185;-92
2023/01/22 02:19:39;;;;;;;5.43;1.30;;;;;;;13.39;88.79;99073.47;5094276;28;20201;-91
2023/01/22 02:22:22;;;;;;;2.67;1.37;;;;;;;13.38;89.31;99060.44;5092948;28;20222;-91
2023/01/22 02:24:49;;;;;;;3.37;1.40;;;;;;;13.08;90.43;99073.75;5094150;28;20603;-91
2023/01/22 02:27:14;;;;;;;7.90;1.40;;;;;;;12.98;90.64;99071.78;5087875;28;20191;-91
2023/01/22 02:29:40;;;;;;;9.37;1.57;;;;;;;13.10;90.41;99071.88;5072588;28;20181;-91
2023/01/22 02:32:06;;;;;;;8.73;2.00;;;;;;;13.19;90.48;99089.72;5072478;28;20636;-91
2023/01/22 02:34:32;;;;;;;9.57;1.23;;;;;;;13.45;89.70;99088.03;5072691;28;20177;-92
2023/01/22 02:36:58;;;;;;;4.03;1.50;;;;;;;13.59;88.43;99092.41;5072591;28;20619;-93
2023/01/22 02:39:23;;;;;;;5.40;1.50;;;;;;;13.69;87.95;99086.44;5087667;28;20267;-92
2023/01/22 02:41:49;;;;;;;4.30;1.23;;;;;;;13.72;87.48;99094.16;5092696;28;20207;-92
2023/01/22 02:44:15;;;;;;;7.43;1.33;;;;;;;13.78;87.38;99093.75;5094355;28;20172;-91
2023/01/22 02:46:40;;;;;;;6.53;1.43;;;;;;;13.74;87.30;99100.16;5093675;28;20183;-92
2023/01/22 02:49:05;;;;;;;3.10;1.17;;;;;;;13.78;86.65;99099.03;5093971;28;20168;-92
2023/01/22 02:51:31;;;;;;;6.13;1.27;;;;;;;13.81;86.77;99096.16;5088039;28;20176;-91
2023/01/22 02:53:57;;;;;;;10.27;1.53;;;;;;;13.90;87.03;99102.63;5073348;28;20180;-90
2023/01/22 02:56:22;;;;;;;4.07;1.27;;;;;;;13.88;87.31;99097.47;5073069;28;20177;-91
2023/01/22 02:58:48;;;;;;;3.00;0.87;;;;;;;14.09;86.79;99103.94;5072999;28;20165;-92
2023/01/22 03:01:19;;;;;;;6.47;1.43;;;;;;;14.14;86.88;99114.16;5072507;28;20245;-92
2023/01/22 03:03:52;;;;;;;9.60;1.47;;;;;;;14.31;86.15;99105.97;5072456;28;20196;-92
2023/01/22 03:06:21;;;;;;;4.23;1.13;;;;;;;14.45;84.98;99092.69;5073416;28;20242;-92
2023/01/22 03:08:54;;;;;;;3.63;1.40;;;;;;;14.55;84.10;99077.91;5072296;28;20185;-92
2023/01/22 03:11:20;;;;;;;3.50;1.23;;;;;;;14.47;84.52;99097.84;5056032;28;20218;-92
2023/01/22 03:21:59;;;;;;;4.40;1.50;;;;;;;13.72;87.98;99090.66;5073286;28;20211;-92
2023/01/22 03:24:25;;;;;;;4.10;1.40;;;;;;;13.67;88.49;99096.25;5073471;28;20260;-91
2023/01/22 03:26:51;;;;;;;6.23;1.57;;;;;;;13.51;89.65;99100.81;5073075;28;20176;-91
2023/01/22 03:29:16;;;;;;;6.77;1.70;;;;;;;13.33;90.65;99099.38;5073105;28;20281;-91
2023/01/22 03:31:46;;;;;;;7.90;2.70;;;;;;;12.89;93.57;99112.69;5072843;28;20176;-90
2023/01/22 03:34:15;;;;;;;9.10;1.90;;;;;;;12.82;94.77;99104.31;5084720;28;20184;-91
2023/01/22 03:36:41;;;;;;;4.53;2.17;;;;;;;12.88;94.77;99096.06;5092121;28;20237;-92
2023/01/22 03:39:07;;;;;;;6.60;2.47;;;;;;;12.75;95.91;99099.53;5093204;28;20571;-92
2023/01/22 03:41:33;;;;;;;6.83;1.97;;;;;;;12.74;96.40;99111.84;5093165;28;20642;-91
2023/01/22 03:44:00;;;;;;;5.03;1.57;;;;;;;12.74;95.62;99110.97;5093283;28;20169;-91
2023/01/22 03:46:26;;;;;;;5.30;1.87;;;;;;;12.79;95.57;99116.81;5076655;28;20227;-91
2023/01/22 03:48:52;;;;;;;7.23;2.30;;;;;;;12.70;95.75;99114.75;5074718;28;20246;-91
2023/01/22 03:51:19;;;;;;;6.27;1.30;;;;;;;12.70;96.85;99120.88;5075839;28;20618;-92
2023/01/22 03:53:45;;;;;;;2.43;1.30;;;;;;;12.92;94.29;99123.84;5076508;28;20608;-92
2023/01/22 03:56:15;;;;;;;8.80;2.00;;;;;;;12.95;94.30;99122.81;5075749;28;20173;-91
2023/01/22 03:58:40;;;;;;;8.93;1.77;;;;;;;12.97;94.53;99125.38;5076448;28;20213;-91
2023/01/22 04:01:09;;;;;;;5.90;1.97;;;;;;;13.05;93.21;99123.09;5075372;28;20188;-92
2023/01/22 04:03:35;;;;;;;5.23;1.27;;;;;;;12.92;93.58;99123.00;5076232;28;20227;-91
2023/01/22 04:06:01;;;;;;;4.17;1.67;;;;;;;12.88;93.45;99132.88;5075341;28;20683;-91
2023/01/22 04:08:28;;;;;;;4.30;1.43;;;;;;;12.95;93.73;99134.19;5092163;28;20180;-92
2023/01/22 04:10:55;;;;;;;4.50;1.60;;;;;;;12.98;93.64;99137.56;5096846;28;20192;-91
2023/01/22 04:13:21;;;;;;;5.37;2.50;;;;;;;13.02;93.25;99139.94;5092524;28;20281;-91
2023/01/22 04:15:46;;;;;;;6.57;1.43;;;;;;;13.11;92.85;99147.25;5076136;28;20643;-92
2023/01/22 04:18:12;;;;;;;5.47;1.43;;;;;;;13.20;92.37;99143.22;5076034;28;20234;-92
2023/01/22 04:20:38;;;;;;;5.10;1.33;;;;;;;13.30;91.79;99146.94;5076092;28;20315;-92
2023/01/22 04:23:04;;;;;;;5.10;2.23;;;;;;;13.36;91.18;99155.28;5075995;28;20239;-91
2023/01/22 04:25:30;;;;;;;7.17;2.17;;;;;;;13.36;91.33;99160.56;5075102;28;20226;-91
2023/01/22 04:27:55;;;;;;;6.63;2.50;;;;;;;13.34;91.55;99161.59;5075045;28;20173;-92
2023/01/22 04:30:21;;;;;;;9.20;3.30;;;;;;;13.19;91.81;99170.47;5075863;28;20188;-92
2023/01/22 04:32:46;;;;;;;4.87;2.43;;;;;;;13.23;92.91;99179.88;5075926;28;20629;-93
2023/01/22 04:35:12;;;;;;;6.07;2.10;;;;;;;13.26;92.06;99177.06;5075706;28;20199;-91
2023/01/22 04:37:38;;;;;;;7.57;1.77;;;;;;;13.14;92.76;99185.69;5075045;28;20189;-92
2023/01/22 04:40:04;;;;;;;5.37;1.57;;;;;;;13.24;91.92;99187.66;5074993;28;20654;-91
2023/01/22 04:42:31;;;;;;;7.40;1.90;;;;;;;13.32;91.78;99189.81;5074828;28;20190;-91
2023/01/22 04:44:57;;;;;;;7.87;2.20;;;;;;;13.25;92.39;99191.16;5074593;28;20169;-91
2023/01/22 04:47:23;;;;;;;6.70;2.13;;;;;;;13.42;91.83;99185.66;5079215;28;20184;-92
2023/01/22 04:49:49;;;;;;;6.90;1.90;;;;;;;13.46;90.59;99197.69;5095937;28;20180;-92
2023/01/22 04:52:14;;;;;;;8.73;2.93;;;;;;;13.30;91.80;99191.69;5095944;28;20199;-91
2023/01/22 04:54:40;;;;;;;8.80;2.47;;;;;;;13.11;92.55;99197.25;5095032;28;20209;-91
2023/01/22 04:57:05;;;;;;;10.13;2.50;;;;;;;13.27;92.56;99191.88;5094722;28;20177;-92
2023/01/22 04:59:31;;;;;;;8.33;2.80;;;;;;;13.41;92.12;99184.84;5095453;28;20256;-91
2023/01/22 05:01:56;;;;;;;40.40;18.87;;;;;;;13.53;91.43;99193.72;5095421;28;20715;-91
2023/01/22 05:04:22;;;;;;;26.27;10.70;;;;;;;13.29;91.82;99203.16;5095400;28;20655;-91
2023/01/22 05:06:49;;;;;;;15.20;4.50;;;;;;;13.53;91.63;99214.78;5095402;28;20168;-91
2023/01/22 05:09:14;;;;;;;6.70;2.27;;;;;;;13.78;90.78;99214.09;5095602;28;20534;-92
2023/01/22 05:11:40;;;;;;;5.87;2.50;;;;;;;13.85;90.01;99213.59;5094254;28;20220;-91
2023/01/22 05:14:06;;;;;;;9.13;2.27;;;;;;;13.82;89.69;99205.88;5095553;28;20577;-91
2023/01/22 05:16:31;;;;;;;5.07;2.27;;;;;;;13.93;88.72;99213.09;5095208;28;20172;-92
2023/01/22 05:36:52;;;;;;;25.23;9.60;;;;;;;13.89;89.32;99232.66;5140210;27;20548;-92
2023/01/22 05:39:17;;;;;;;20.47;10.23;;;;;;;14.04;88.60;99240.44;5131600;27;20180;-92
2023/01/22 05:41:44;;;;;;;16.33;8.17;;;;;;;14.16;88.04;99241.44;5131584;27;20166;-92
2023/01/22 05:44:12;;;;;;;18.67;6.27;;;;;;;14.27;87.78;99240.72;5130851;27;20190;-93
2023/01/22 05:46:37;;;;;;;11.90;4.00;;;;;;;14.33;87.21;99249.13;5130717;27;20204;-92
2023/01/22 05:49:03;;;;;;;8.63;4.00;;;;;;;14.36;86.47;99261.25;5131732;27;20191;-92
2023/01/22 05:51:29;;;;;;;12.33;4.10;;;;;;;14.42;86.16;99264.31;5130659;27;20192;-92
2023/01/22 05:53:56;;;;;;;10.00;3.40;;;;;;;14.55;86.03;99253.78;5130545;27;20648;-92
2023/01/22 05:56:22;;;;;;;9.63;3.17;;;;;;;14.60;85.19;99272.78;5131469;27;20625;-92
2023/01/22 05:58:49;;;;;;;6.97;2.57;;;;;;;14.56;85.32;99266.91;5130377;28;20565;-92
2023/01/22 06:01:16;;;;;;;7.00;2.97;;;;;;;14.55;84.75;99274.91;5131296;28;20175;-92
2023/01/22 06:03:43;;;;;;;7.93;2.67;;;;;;;14.58;84.65;99279.97;5130362;28;20183;-91
2023/01/22 06:06:13;;;;;;;8.20;3.60;;;;;;;14.62;84.45;99284.13;5130612;28;20284;-92
2023/01/22 06:08:41;;;;;;;7.57;3.53;;;;;;;14.64;83.85;99300.69;5131119;27;20188;-92
2023/01/22 06:11:13;;;;;;;10.47;4.57;;;;;;;14.64;84.10;99306.81;5130289;28;20180;-93
2023/01/22 06:13:40;;;;;;;10.13;4.57;;;;;;;14.65;83.76;99312.91;5130760;28;20220;-92
2023/01/22 06:16:07;;;;;;;9.00;5.33;;;;;;;14.65;83.78;99315.53;5130902;27;20235;-92
2023/01/22 06:18:35;;;;;;;10.10;5.73;;;;;;;14.66;83.26;99319.88;5131045;27;20179;-92
2023/01/22 06:21:07;;;;;;;10.53;4.83;;;;;;;14.67;83.26;99324.22;5129875;28;20178;-92
2023/01/22 06:23:34;;;;;;;8.77;4.03;;;;;;;14.66;82.89;99326.00;5130372;28;20266;-92
2023/01/22 06:26:01;;;;;;;9.73;4.00;;;;;;;14.70;83.11;99326.66;5128676;28;20181;-92
2023/01/22 06:28:28;;;;;;;8.37;4.17;;;;;;;14.67;82.84;99326.88;5129309;28;20219;-92
2023/01/22 06:31:04;;;;;;;8.23;4.50;;;;;;;14.73;82.38;99329.06;5129851;28;20181;-92
2023/01/22 06:33:32;;;;;;;13.07;6.07;;;;;;;14.68;82.46;99329.38;5129937;27;20647;-92
2023/01/22 06:35:58;;;;;;;12.10;5.50;;;;;;;14.67;82.75;99342.69;5125432;28;20572;-92
2023/01/22 06:38:23;;;;;;;12.73;5.70;;;;;;;14.68;82.86;99337.31;5114811;28;20192;-92
2023/01/22 06:40:57;;;;;;;10.50;4.97;;;;;;;14.75;82.61;99335.13;5115736;28;20187;-92
2023/01/22 06:43:24;;;;;;;8.00;3.83;;;;;;;14.85;82.21;99324.78;5115970;28;20245;-92
2023/01/22 06:45:50;;;;;;;148.23;48.70;;;;;;;14.85;81.53;99333.56;5116569;27;20195;-92
2023/01/22 06:48:15;;;;;;;42.97;18.10;;;;;;;14.88;81.53;99329.88;5114078;28;20192;-92
2023/01/22 06:50:41;;;;;;;21.80;7.00;;;;;;;14.88;81.58;99340.44;5114415;28;20187;-92
2023/01/22 06:53:07;;;;;;;41.93;16.73;;;;;;;14.87;82.05;99346.63;5114803;28;20177;-93
2023/01/22 06:55:32;;;;;;;31.20;12.83;;;;;;;14.85;82.11;99351.19;5115524;28;20182;-93
2023/01/22 06:57:58;;;;;;;19.00;7.00;;;;;;;14.91;82.05;99362.16;5115384;28;20179;-92
2023/01/22 07:00:23;;;;;;;10.50;4.23;;;;;;;14.92;81.94;99355.09;5115701;28;20632;-92
2023/01/22 07:02:49;;;;;;;4.57;2.53;;;;;;;14.87;82.18;99360.69;5115475;28;20249;-92
2023/01/22 07:05:15;;;;;;;6.33;2.63;;;;;;;14.93;82.69;99368.22;5113475;28;20672;-92
2023/01/22 07:07:41;;;;;;;5.43;1.77;;;;;;;15.08;81.79;99374.25;5104377;28;20193;-92
2023/01/22 07:10:08;;;;;;;9.30;2.30;;;;;;;15.10;81.67;99372.34;5113784;28;20177;-92
2023/01/22 07:12:33;;;;;;;20.23;4.87;;;;;;;15.12;81.13;99375.75;5114356;28;20181;-92
2023/01/22 07:14:59;;;;;;;21.00;6.03;;;;;;;14.99;81.70;99383.63;5115267;28;20188;-92
2023/01/22 07:17:24;;;;;;;27.20;6.83;;;;;;;15.01;81.92;99394.94;5114671;28;20658;-92
2023/01/22 07:19:50;;;;;;;42.43;11.40;;;;;;;15.04;81.53;99391.25;5111547;28;20185;-92
2023/01/22 07:22:15;;;;;;;21.17;5.90;;;;;;;15.01;82.04;99394.94;5109382;28;20196;-92
2023/01/22 07:24:41;;;;;;;20.83;5.60;;;;;;;15.07;81.88;99396.28;5114773;28;20197;-92
2023/01/22 07:27:06;;;;;;;18.80;5.07;;;;;;;15.01;82.14;99397.59;5110798;28;20204;-92
2023/01/22 07:29:32;;;;;;;11.67;4.03;;;;;;;15.09;81.96;99391.78;5115136;28;20223;-92
2023/01/22 07:31:57;;;;;;;9.50;3.83;;;;;;;15.19;80.81;99393.72;5113774;28;20180;-91
2023/01/22 07:34:22;;;;;;;16.07;3.70;;;;;;;15.15;80.36;99389.56;5114668;27;20177;-91
2023/01/22 07:36:48;;;;;;;5.60;3.10;;;;;;;15.07;81.25;99394.50;5115171;28;20252;-92
2023/01/22 07:39:13;;;;;;;4.83;2.20;;;;;;;14.87;81.72;99394.16;5114093;28;20251;-91
2023/01/22 07:41:39;;;;;;;5.83;2.90;;;;;;;14.43;84.37;99402.31;5114285;28;20226;-92
2023/01/22 07:44:06;;;;;;;10.40;2.93;;;;;;;14.08;86.05;99415.91;5113412;28;20183;-92
2023/01/22 07:46:34;;;;;;;8.43;2.97;;;;;;;13.98;86.87;99414.78;5113429;28;20696;-92
2023/01/22 07:48:59;;;;;;;9.13;3.07;;;;;;;14.01;87.47;99406.69;5113718;28;20191;-92
2023/01/22 07:51:25;;;;;;;9.60;3.70;;;;;;;14.32;86.31;99407.41;5114786;28;20249;-92
2023/01/22 07:53:50;;;;;;;8.60;4.53;;;;;;;14.52;85.19;99407.84;5114623;28;20177;-91
2023/01/22 07:56:17;;;;;;;9.50;4.60;;;;;;;14.53;85.27;99408.69;5113032;28;20176;-92
2023/01/22 07:58:43;;;;;;;8.53;2.93;;;;;;;14.52;85.26;99412.25;5114198;28;20226;-92
2023/01/22 08:01:10;;;;;;;5.93;2.67;;;;;;;14.67;84.30;99421.84;5114441;28;20172;-91
2023/01/22 08:03:36;;;;;;;7.37;3.17;;;;;;;14.64;84.23;99425.53;5113404;28;20276;-92
2023/01/22 08:06:08;;;;;;;9.13;2.90;;;;;;;14.63;84.68;99430.88;5114075;28;20203;-92
2023/01/22 08:08:33;;;;;;;13.60;3.23;;;;;;;14.67;84.44;99427.94;5113324;28;20186;-92
2023/01/22 08:10:59;;;;;;;6.90;2.90;;;;;;;14.73;84.51;99438.13;5112932;28;20615;-92
2023/01/22 08:13:25;;;;;;;10.37;3.03;;;;;;;14.80;84.35;99437.72;5113023;28;20181;-92
2023/01/22 08:15:50;;;;;;;14.07;5.43;;;;;;;14.86;84.05;99447.91;5114228;28;20177;-92
2023/01/22 08:18:15;;;;;;;16.27;6.33;;;;;;;14.90;84.13;99452.00;5113543;28;21098;-92
2023/01/22 08:20:41;;;;;;;17.33;5.83;;;;;;;14.92;83.71;99447.47;5114025;28;20267;-92
2023/01/22 08:23:06;;;;;;;12.87;6.17;;;;;;;14.94;83.82;99462.25;5112513;28;20220;-92
2023/01/22 08:25:32;;;;;;;19.20;7.83;;;;;;;14.96;83.51;99460.41;5112636;28;20181;-92
2023/01/22 08:28:02;;;;;;;19.60;7.33;;;;;;;14.97;83.51;99467.34;5108354;28;20256;-91
2023/01/22 08:30:27;;;;;;;22.30;11.33;;;;;;;15.00;83.46;99469.78;5113311;28;20195;-92
2023/01/22 08:32:54;;;;;;;28.80;14.00;;;;;;;15.02;83.69;99483.72;5113263;28;20258;-92
2023/01/22 08:35:20;;;;;;;26.33;13.93;;;;;;;15.01;83.44;99489.97;5103674;28;20181;-92
2023/01/22 08:37:45;;;;;;;30.67;13.93;;;;;;;14.97;83.56;99483.19;5109790;28;20247;-93
2023/01/22 08:40:12;;;;;;;32.00;13.63;;;;;;;15.02;83.61;99496.94;5113647;28;20177;-93
2023/01/22 08:42:38;;;;;;;23.13;11.30;;;;;;;15.02;83.17;99496.09;5106966;28;20239;-92
2023/01/22 08:45:05;;;;;;;26.10;12.27;;;;;;;15.03;83.39;99498.63;5113454;28;20225;-92
2023/01/22 08:47:30;;;;;;;25.67;12.03;;;;;;;15.04;83.38;99510.88;5113325;28;20359;-92
2023/01/22 08:49:56;;;;;;;21.43;11.83;;;;;;;15.09;83.36;99506.16;5114374;28;20630;-92
2023/01/22 08:52:21;;;;;;;23.33;11.90;;;;;;;15.21;83.69;99513.28;5113495;28;20175;-92
2023/01/22 08:54:47;;;;;;;28.37;13.40;;;;;;;15.31;83.80;99511.72;5113400;28;20186;-92
2023/01/22 08:57:13;;;;;;;28.77;12.80;;;;;;;15.33;83.85;99512.47;5114343;28;20168;-92
2023/01/22 08:59:38;;;;;;;23.70;13.20;;;;;;;15.38;84.58;99504.25;5113987;28;20620;-92
2023/01/22 09:02:04;;;;;;;23.37;12.60;;;;;;;15.46;84.37;99496.66;5113272;28;20279;-92
2023/01/22 09:04:29;;;;;;;16.10;9.57;;;;;;;15.52;84.00;99495.41;5113194;28;20182;-92
2023/01/22 09:06:55;;;;;;;20.20;11.37;;;;;;;15.55;83.56;99497.88;5114194;28;20291;-92
2023/01/22 09:09:21;;;;;;;18.93;10.07;;;;;;;15.63;83.55;99498.19;5112444;28;20188;-93
2023/01/22 09:11:47;;;;;;;23.27;10.40;;;;;;;15.68;83.62;99490.81;5113401;28;20693;-92
2023/01/22 09:14:14;;;;;;;20.83;8.33;;;;;;;15.66;83.72;99492.72;5113101;28;20208;-92
2023/01/22 09:16:41;;;;;;;12.17;6.23;;;;;;;15.63;84.00;99477.91;5113418;28;20175;-92
2023/01/22 09:19:10;;;;;;;11.63;6.50;;;;;;;15.64;83.49;99478.75;5092406;28;20260;-92
2023/01/22 09:21:36;;;;;;;13.37;7.17;;;;;;;15.64;84.41;99473.47;5092366;28;20186;-91
2023/01/22 09:24:03;;;;;;;16.63;6.47;;;;;;;15.86;81.74;99469.25;5107956;28;20201;-92
2023/01/22 09:26:31;;;;;;;16.27;9.17;;;;;;;15.86;81.41;99468.41;5112643;28;20283;-91
2023/01/22 09:28:56;;;;;;;18.47;9.93;;;;;;;15.51;82.81;99475.25;5111618;28;20174;-92
2023/01/22 09:31:22;;;;;;;20.70;9.40;;;;;;;15.35;82.71;99478.03;5111322;28;20270;-91
2023/01/22 09:33:49;;;;;;;17.80;10.17;;;;;;;15.22;84.22;99477.16;5112104;28;20754;-92
2023/01/22 09:36:16;;;;;;;27.60;12.97;;;;;;;15.50;84.03;99474.41;5111685;28;20186;-92
2023/01/22 09:38:43;;;;;;;21.73;10.27;;;;;;;15.54;82.95;99477.69;5113437;28;20192;-92
2023/01/22 09:41:29;;;;;;;27.77;12.30;;;;;;;15.44;82.50;99479.19;5114023;28;20182;-92
2023/01/22 09:44:18;;;;;;;17.00;8.30;;;;;;;15.26;82.90;99484.78;5113574;28;20578;-92
2023/01/22 09:47:00;;;;;;;17.63;8.30;;;;;;;15.24;83.54;99476.13;5113872;28;20182;-92
2023/01/22 09:49:38;;;;;;;14.07;7.10;;;;;;;15.44;84.43;99466.00;5113983;28;20551;-92
2023/01/22 09:52:05;;;;;;;15.40;6.83;;;;;;;15.51;85.49;99472.59;5113631;28;20633;-92
2023/01/22 09:54:32;;;;;;;10.43;5.83;;;;;;;15.68;84.77;99467.88;5112674;28;20175;-92
2023/01/22 09:57:02;;;;;;;15.17;6.23;;;;;;;15.71;84.72;99465.03;5112669;28;20183;-92
2023/01/22 09:59:38;;;;;;;13.67;5.77;;;;;;;15.28;84.26;99472.31;5113728;28;20163;-92
2023/01/22 10:02:29;;;;;;;16.70;6.23;;;;;;;15.37;84.11;99465.56;5112262;28;20185;-92
2023/01/22 10:05:18;;;;;;;14.07;5.87;;;;;;;15.28;84.99;99466.16;5113172;28;20202;-92
2023/01/22 10:08:01;;;;;;;11.90;6.07;;;;;;;15.40;85.86;99462.72;5110088;28;20555;-92
2023/01/22 10:10:28;;;;;;;8.10;4.03;;;;;;;15.24;85.21;99469.97;5109521;28;20192;-92
2023/01/22 10:13:22;;;;;;;10.23;4.57;;;;;;;15.65;84.10;99454.84;5114909;28;20635;-91
2023/01/22 10:15:52;;;;;;;14.23;5.63;;;;;;;15.55;84.56;99458.22;5106154;28;20196;-92
2023/01/22 10:18:36;;;;;;;13.47;5.37;;;;;;;15.53;83.57;99466.28;5114917;28;20593;-91
2023/01/22 10:21:10;;;;;;;11.67;3.43;;;;;;;15.30;83.83;99462.47;5116076;28;20195;-92
2023/01/22 10:23:36;;;;;;;8.00;3.57;;;;;;;15.52;83.57;99459.28;5112348;28;20611;-92
2023/01/22 10:26:36;;;;;;;11.17;3.33;;;;;;;15.50;83.81;99463.84;5115876;28;20186;-92
2023/01/22 10:29:08;;;;;;;9.90;4.57;;;;;;;15.79;83.42;99461.84;5111597;28;20190;-91
2023/01/22 10:31:41;;;;;;;6.73;3.10;;;;;;;15.66;82.33;99461.84;5116467;28;20202;-92
2023/01/22 10:34:19;;;;;;;9.73;4.13;;;;;;;15.69;83.03;99461.66;5115205;28;20190;-92
2023/01/22 10:36:51;;;;;;;11.40;4.37;;;;;;;15.13;84.42;99468.03;5110949;28;20283;-91
2023/01/22 10:39:19;;;;;;;10.73;4.13;;;;;;;15.15;85.13;99468.78;5112844;28;20251;-91
2023/01/22 10:41:47;;;;;;;9.97;3.70;;;;;;;14.96;85.33;99463.03;5115848;27;20262;-92
2023/01/22 10:44:24;;;;;;;10.17;3.80;;;;;;;15.07;86.64;99457.03;5115892;28;20201;-92
2023/01/22 10:46:52;;;;;;;14.90;6.47;;;;;;;15.04;86.14;99468.63;5115910;28;20190;-92
2023/01/22 10:49:27;;;;;;;6.90;3.30;;;;;;;14.53;87.36;99464.09;5115530;28;20210;-90
2023/01/22 10:52:17;;;;;;;8.57;3.17;;;;;;;14.87;86.45;99458.34;5108545;28;20194;-91
2023/01/22 10:54:52;;;;;;;7.70;2.33;;;;;;;14.54;87.04;99463.97;5114216;28;20175;-91
2023/01/22 10:57:32;;;;;;;7.53;2.53;;;;;;;14.44;87.81;99472.59;5115289;28;20185;-91
2023/01/22 11:00:12;;;;;;;5.93;2.20;;;;;;;14.58;87.93;99469.91;5104933;28;20187;-92
2023/01/22 11:02:46;;;;;;;7.97;3.23;;;;;;;14.78;86.88;99464.19;5112422;28;20258;-91
2023/01/22 11:05:28;;;;;;;10.27;3.60;;;;;;;14.72;87.50;99477.81;5111679;28;20188;-92
2023/01/22 11:08:10;;;;;;;6.63;3.07;;;;;;;14.65;87.29;99473.84;5127344;27;20190;-92
2023/01/22 11:10:47;;;;;;;5.50;2.80;;;;;;;14.73;86.30;99474.19;5113623;28;20180;-92
2023/01/22 11:13:35;;;;;;;8.17;2.50;;;;;;;14.54;87.64;99478.97;5115599;27;20197;-92
2023/01/22 11:16:18;;;;;;;10.03;3.47;;;;;;;14.80;86.76;99483.44;5110616;28;20626;-92
2023/01/22 11:19:05;;;;;;;14.23;5.73;;;;;;;14.93;86.54;99486.97;5113891;28;20182;-92
2023/01/22 11:21:36;;;;;;;9.77;4.80;;;;;;;15.11;85.91;99485.78;5115144;28;20182;-92
2023/01/22 11:24:32;;;;;;;8.77;3.67;;;;;;;15.23;85.67;99489.41;5106618;28;20178;-92
2023/01/22 11:27:13;;;;;;;5.87;2.97;;;;;;;15.26;85.45;99484.78;5115755;27;20185;-92
2023/01/22 11:30:13;;;;;;;8.20;3.77;;;;;;;15.20;85.31;99490.44;5114419;28;20190;-92
2023/01/22 11:33:02;;;;;;;8.47;3.10;;;;;;;15.31;85.00;99480.03;5104841;28;20185;-93
2023/01/22 11:35:46;;;;;;;11.03;3.60;;;;;;;15.31;84.74;99482.66;5113802;28;20661;-92
2023/01/22 11:38:25;;;;;;;10.17;4.03;;;;;;;15.20;84.51;99474.59;5113423;28;20341;-92
2023/01/22 11:41:16;;;;;;;12.80;3.30;;;;;;;14.97;85.42;99482.34;5113388;28;20227;-92
2023/01/22 11:44:08;;;;;;;5.60;3.33;;;;;;;14.58;88.04;99475.19;5114372;28;20201;-92
2023/01/22 11:46:50;;;;;;;43.77;21.63;;;;;;;14.53;88.58;99472.00;5076134;28;20200;-91
2023/01/22 11:49:24;;;;;;;14.33;6.20;;;;;;;14.58;88.76;99459.34;5112547;28;20196;-92
2023/01/22 11:52:29;;;;;;;7.30;4.37;;;;;;;14.34;89.68;99453.00;5114608;28;20184;-92
2023/01/22 11:55:27;;;;;;;14.20;5.27;;;;;;;14.26;89.88;99423.59;5113688;28;20241;-91
2023/01/22 11:58:30;;;;;;;16.60;6.73;;;;;;;14.37;89.98;99423.78;5104804;28;20172;-92
2023/01/22 12:01:20;;;;;;;13.27;6.57;;;;;;;14.45;88.83;99434.72;5114097;28;20177;-92
2023/01/22 12:04:07;;;;;;;12.93;6.90;;;;;;;14.32;90.23;99436.41;5106586;28;20198;-90